sensor_id;sensor_type;location;lat;lon;timestamp;P1;durP1;ratioP1;P2;durP2;ratioP2
42904;SDS011;28550;51.228;4.528;2023-07-30T00:00:02;14.55;;;4.05;;
42904;SDS011;28550;51.228;4.528;2023-07-30T00:02:37;13.52;;;4.00;;
42904;SDS011;28550;51.228;4.528;2023-07-30T00:05:25;14.93;;;4.90;;
42904;SDS011;28550;51.228;4.528;2023-07-30T00:07:51;12.93;;;3.58;;
42904;SDS011;28550;51.228;4.528;2023-07-30T00:10:17;8.73;;;4.22;;
42904;SDS011;28550;51.228;4.528;2023-07-30T00:12:43;11.63;;;3.65;;
42904;SDS011;28550;51.228;4.528;2023-07-30T00:15:09;8.00;;;3.83;;
42904;SDS011;28550;51.228;4.528;2023-07-30T00:17:35;15.98;;;4.93;;
42904;SDS011;28550;51.228;4.528;2023-07-30T00:20:00;12.68;;;3.97;;
42904;SDS011;28550;51.228;4.528;2023-07-30T00:22:47;12.95;;;3.95;;
42904;SDS011;28550;51.228;4.528;2023-07-30T00:25:19;18.92;;;4.97;;
42904;SDS011;28550;51.228;4.528;2023-07-30T00:27:47;15.05;;;4.63;;
42904;SDS011;28550;51.228;4.528;2023-07-30T00:30:12;13.27;;;4.53;;
42904;SDS011;28550;51.228;4.528;2023-07-30T00:32:38;12.75;;;4.68;;
42904;SDS011;28550;51.228;4.528;2023-07-30T00:35:08;14.75;;;4.63;;
42904;SDS011;28550;51.228;4.528;2023-07-30T00:37:34;16.85;;;3.97;;
42904;SDS011;28550;51.228;4.528;2023-07-30T00:40:07;13.95;;;4.80;;
42904;SDS011;28550;51.228;4.528;2023-07-30T00:42:43;9.18;;;4.30;;
42904;SDS011;28550;51.228;4.528;2023-07-30T00:45:17;11.80;;;4.30;;
42904;SDS011;28550;51.228;4.528;2023-07-30T00:54:42;17.23;;;5.18;;
42904;SDS011;28550;51.228;4.528;2023-07-30T00:57:29;15.65;;;4.72;;
42904;SDS011;28550;51.228;4.528;2023-07-30T01:00:41;15.27;;;5.03;;
42904;SDS011;28550;51.228;4.528;2023-07-30T01:06:51;12.30;;;4.53;;
42904;SDS011;28550;51.228;4.528;2023-07-30T01:12:48;14.77;;;4.30;;
42904;SDS011;28550;51.228;4.528;2023-07-30T01:15:36;14.10;;;4.68;;
42904;SDS011;28550;51.228;4.528;2023-07-30T01:18:06;14.05;;;4.32;;
42904;SDS011;28550;51.228;4.528;2023-07-30T01:20:32;14.57;;;5.38;;
42904;SDS011;28550;51.228;4.528;2023-07-30T01:23:07;12.20;;;4.75;;
42904;SDS011;28550;51.228;4.528;2023-07-30T01:32:07;12.25;;;4.68;;
42904;SDS011;28550;51.228;4.528;2023-07-30T01:37:15;18.48;;;4.65;;
42904;SDS011;28550;51.228;4.528;2023-07-30T01:40:03;9.15;;;3.97;;
42904;SDS011;28550;51.228;4.528;2023-07-30T01:42:32;13.73;;;4.60;;
42904;SDS011;28550;51.228;4.528;2023-07-30T01:45:10;12.05;;;4.40;;
42904;SDS011;28550;51.228;4.528;2023-07-30T01:47:36;18.73;;;5.75;;
42904;SDS011;28550;51.228;4.528;2023-07-30T01:50:04;15.95;;;5.00;;
42904;SDS011;28550;51.228;4.528;2023-07-30T01:58:26;20.15;;;4.75;;
42904;SDS011;28550;51.228;4.528;2023-07-30T02:00:57;14.43;;;5.43;;
42904;SDS011;28550;51.228;4.528;2023-07-30T02:03:23;20.05;;;5.18;;
42904;SDS011;28550;51.228;4.528;2023-07-30T02:08:40;21.00;;;5.13;;
42904;SDS011;28550;51.228;4.528;2023-07-30T02:11:17;16.05;;;4.65;;
42904;SDS011;28550;51.228;4.528;2023-07-30T02:13:43;21.80;;;5.45;;
42904;SDS011;28550;51.228;4.528;2023-07-30T02:16:24;21.40;;;4.75;;
42904;SDS011;28550;51.228;4.528;2023-07-30T02:18:56;14.27;;;5.55;;
42904;SDS011;28550;51.228;4.528;2023-07-30T02:21:37;18.67;;;5.68;;
42904;SDS011;28550;51.228;4.528;2023-07-30T02:24:10;19.00;;;4.80;;
42904;SDS011;28550;51.228;4.528;2023-07-30T02:32:08;21.75;;;5.63;;
42904;SDS011;28550;51.228;4.528;2023-07-30T02:34:36;16.85;;;5.97;;
42904;SDS011;28550;51.228;4.528;2023-07-30T02:37:12;23.92;;;5.25;;
42904;SDS011;28550;51.228;4.528;2023-07-30T02:40:15;17.85;;;4.57;;
42904;SDS011;28550;51.228;4.528;2023-07-30T02:42:46;15.82;;;4.78;;
42904;SDS011;28550;51.228;4.528;2023-07-30T02:45:22;15.65;;;4.25;;
42904;SDS011;28550;51.228;4.528;2023-07-30T02:47:51;13.60;;;4.38;;
42904;SDS011;28550;51.228;4.528;2023-07-30T02:53:35;15.75;;;4.65;;
42904;SDS011;28550;51.228;4.528;2023-07-30T02:56:01;15.60;;;4.22;;
42904;SDS011;28550;51.228;4.528;2023-07-30T02:58:27;19.13;;;4.50;;
42904;SDS011;28550;51.228;4.528;2023-07-30T03:00:53;15.25;;;4.15;;
42904;SDS011;28550;51.228;4.528;2023-07-30T03:03:19;23.67;;;4.80;;
42904;SDS011;28550;51.228;4.528;2023-07-30T03:05:44;13.57;;;4.13;;
42904;SDS011;28550;51.228;4.528;2023-07-30T03:08:14;19.08;;;4.82;;
42904;SDS011;28550;51.228;4.528;2023-07-30T03:10:42;20.33;;;4.45;;
42904;SDS011;28550;51.228;4.528;2023-07-30T03:13:08;19.92;;;4.78;;
42904;SDS011;28550;51.228;4.528;2023-07-30T03:15:45;15.48;;;4.78;;
42904;SDS011;28550;51.228;4.528;2023-07-30T03:21:03;16.02;;;4.47;;
42904;SDS011;28550;51.228;4.528;2023-07-30T03:24:18;14.45;;;4.40;;
42904;SDS011;28550;51.228;4.528;2023-07-30T03:26:44;19.73;;;4.75;;
42904;SDS011;28550;51.228;4.528;2023-07-30T03:31:57;20.17;;;4.55;;
42904;SDS011;28550;51.228;4.528;2023-07-30T03:34:23;18.35;;;4.90;;
42904;SDS011;28550;51.228;4.528;2023-07-30T03:40:24;19.83;;;4.57;;
42904;SDS011;28550;51.228;4.528;2023-07-30T03:43:07;14.15;;;4.13;;
42904;SDS011;28550;51.228;4.528;2023-07-30T03:45:33;18.48;;;4.47;;
42904;SDS011;28550;51.228;4.528;2023-07-30T03:48:01;14.30;;;5.55;;
42904;SDS011;28550;51.228;4.528;2023-07-30T03:51:31;16.98;;;4.38;;
42904;SDS011;28550;51.228;4.528;2023-07-30T03:56:44;21.00;;;5.07;;
42904;SDS011;28550;51.228;4.528;2023-07-30T03:59:12;18.83;;;4.72;;
42904;SDS011;28550;51.228;4.528;2023-07-30T04:01:38;28.05;;;5.97;;
42904;SDS011;28550;51.228;4.528;2023-07-30T04:07:00;24.10;;;5.45;;
42904;SDS011;28550;51.228;4.528;2023-07-30T04:13:19;18.67;;;4.50;;
42904;SDS011;28550;51.228;4.528;2023-07-30T04:16:13;16.38;;;4.70;;
42904;SDS011;28550;51.228;4.528;2023-07-30T04:24:59;22.83;;;6.03;;
42904;SDS011;28550;51.228;4.528;2023-07-30T04:27:24;16.60;;;5.65;;
42904;SDS011;28550;51.228;4.528;2023-07-30T04:33:44;32.90;;;6.30;;
42904;SDS011;28550;51.228;4.528;2023-07-30T04:39:05;20.60;;;4.90;;
42904;SDS011;28550;51.228;4.528;2023-07-30T04:41:55;27.48;;;6.55;;
42904;SDS011;28550;51.228;4.528;2023-07-30T04:47:51;23.77;;;4.78;;
42904;SDS011;28550;51.228;4.528;2023-07-30T04:50:37;18.80;;;5.10;;
42904;SDS011;28550;51.228;4.528;2023-07-30T04:53:05;26.10;;;5.43;;
42904;SDS011;28550;51.228;4.528;2023-07-30T04:55:36;15.65;;;4.30;;
42904;SDS011;28550;51.228;4.528;2023-07-30T04:58:01;21.33;;;6.05;;
42904;SDS011;28550;51.228;4.528;2023-07-30T05:00:28;17.73;;;5.43;;
42904;SDS011;28550;51.228;4.528;2023-07-30T05:02:58;21.80;;;5.38;;
42904;SDS011;28550;51.228;4.528;2023-07-30T05:09:14;17.67;;;4.73;;
42904;SDS011;28550;51.228;4.528;2023-07-30T05:11:39;16.88;;;5.25;;
42904;SDS011;28550;51.228;4.528;2023-07-30T05:14:05;15.30;;;3.97;;
42904;SDS011;28550;51.228;4.528;2023-07-30T05:16:32;21.65;;;4.47;;
42904;SDS011;28550;51.228;4.528;2023-07-30T05:18:59;17.88;;;4.63;;
42904;SDS011;28550;51.228;4.528;2023-07-30T05:21:31;13.40;;;4.50;;
42904;SDS011;28550;51.228;4.528;2023-07-30T05:24:14;18.30;;;4.72;;
42904;SDS011;28550;51.228;4.528;2023-07-30T05:27:04;19.90;;;5.20;;
42904;SDS011;28550;51.228;4.528;2023-07-30T05:29:38;15.40;;;4.25;;
42904;SDS011;28550;51.228;4.528;2023-07-30T05:32:36;22.88;;;4.93;;
42904;SDS011;28550;51.228;4.528;2023-07-30T05:35:08;15.98;;;5.15;;
42904;SDS011;28550;51.228;4.528;2023-07-30T05:37:45;23.23;;;5.95;;
42904;SDS011;28550;51.228;4.528;2023-07-30T05:40:31;14.95;;;4.05;;
42904;SDS011;28550;51.228;4.528;2023-07-30T05:43:31;18.08;;;4.75;;
42904;SDS011;28550;51.228;4.528;2023-07-30T05:45:57;23.65;;;6.15;;
42904;SDS011;28550;51.228;4.528;2023-07-30T05:48:44;15.45;;;4.53;;
42904;SDS011;28550;51.228;4.528;2023-07-30T05:51:31;14.55;;;4.82;;
42904;SDS011;28550;51.228;4.528;2023-07-30T05:54:14;23.70;;;4.88;;
42904;SDS011;28550;51.228;4.528;2023-07-30T06:00:01;22.85;;;4.53;;
42904;SDS011;28550;51.228;4.528;2023-07-30T06:02:59;16.27;;;4.95;;
42904;SDS011;28550;51.228;4.528;2023-07-30T06:05:33;19.67;;;4.55;;
42904;SDS011;28550;51.228;4.528;2023-07-30T06:08:09;19.25;;;5.15;;
42904;SDS011;28550;51.228;4.528;2023-07-30T06:10:39;20.48;;;5.32;;
42904;SDS011;28550;51.228;4.528;2023-07-30T06:13:14;23.33;;;5.40;;
42904;SDS011;28550;51.228;4.528;2023-07-30T06:19:02;14.02;;;4.72;;
42904;SDS011;28550;51.228;4.528;2023-07-30T06:24:42;20.98;;;4.70;;
42904;SDS011;28550;51.228;4.528;2023-07-30T06:30:17;23.20;;;6.40;;
42904;SDS011;28550;51.228;4.528;2023-07-30T06:33:11;30.15;;;7.75;;
42904;SDS011;28550;51.228;4.528;2023-07-30T06:35:40;19.45;;;4.65;;
42904;SDS011;28550;51.228;4.528;2023-07-30T06:38:09;18.77;;;4.53;;
42904;SDS011;28550;51.228;4.528;2023-07-30T06:40:51;26.38;;;5.68;;
42904;SDS011;28550;51.228;4.528;2023-07-30T06:43:24;15.85;;;5.35;;
42904;SDS011;28550;51.228;4.528;2023-07-30T06:45:53;19.27;;;4.68;;
42904;SDS011;28550;51.228;4.528;2023-07-30T06:48:22;27.25;;;5.75;;
42904;SDS011;28550;51.228;4.528;2023-07-30T06:50:50;19.30;;;4.53;;
42904;SDS011;28550;51.228;4.528;2023-07-30T06:53:21;21.45;;;4.30;;
42904;SDS011;28550;51.228;4.528;2023-07-30T06:55:47;27.08;;;5.28;;
42904;SDS011;28550;51.228;4.528;2023-07-30T06:58:14;22.20;;;5.72;;
42904;SDS011;28550;51.228;4.528;2023-07-30T07:00:40;18.02;;;5.82;;
42904;SDS011;28550;51.228;4.528;2023-07-30T07:03:08;20.25;;;4.78;;
42904;SDS011;28550;51.228;4.528;2023-07-30T07:08:05;25.13;;;5.47;;
42904;SDS011;28550;51.228;4.528;2023-07-30T07:10:34;26.20;;;5.40;;
42904;SDS011;28550;51.228;4.528;2023-07-30T07:13:08;16.52;;;4.15;;
42904;SDS011;28550;51.228;4.528;2023-07-30T07:15:36;18.25;;;4.88;;
42904;SDS011;28550;51.228;4.528;2023-07-30T07:18:05;13.40;;;5.68;;
42904;SDS011;28550;51.228;4.528;2023-07-30T07:20:33;16.85;;;4.78;;
42904;SDS011;28550;51.228;4.528;2023-07-30T07:23:04;22.42;;;4.63;;
42904;SDS011;28550;51.228;4.528;2023-07-30T07:25:30;24.08;;;5.47;;
42904;SDS011;28550;51.228;4.528;2023-07-30T07:27:56;13.68;;;4.30;;
42904;SDS011;28550;51.228;4.528;2023-07-30T07:30:22;22.27;;;5.28;;
42904;SDS011;28550;51.228;4.528;2023-07-30T07:32:48;14.48;;;4.72;;
42904;SDS011;28550;51.228;4.528;2023-07-30T07:35:18;13.15;;;4.38;;
42904;SDS011;28550;51.228;4.528;2023-07-30T07:37:45;20.75;;;4.38;;
42904;SDS011;28550;51.228;4.528;2023-07-30T07:40:15;15.93;;;4.72;;
42904;SDS011;28550;51.228;4.528;2023-07-30T07:42:41;19.50;;;5.00;;
42904;SDS011;28550;51.228;4.528;2023-07-30T07:45:07;15.82;;;4.75;;
42904;SDS011;28550;51.228;4.528;2023-07-30T07:47:35;14.95;;;5.13;;
42904;SDS011;28550;51.228;4.528;2023-07-30T07:50:05;14.50;;;4.63;;
42904;SDS011;28550;51.228;4.528;2023-07-30T07:52:35;13.93;;;4.82;;
42904;SDS011;28550;51.228;4.528;2023-07-30T07:55:01;21.38;;;5.07;;
42904;SDS011;28550;51.228;4.528;2023-07-30T07:57:27;23.15;;;4.90;;
42904;SDS011;28550;51.228;4.528;2023-07-30T07:59:56;21.65;;;5.05;;
42904;SDS011;28550;51.228;4.528;2023-07-30T08:02:23;26.83;;;5.70;;
42904;SDS011;28550;51.228;4.528;2023-07-30T08:04:51;9.77;;;3.70;;
42904;SDS011;28550;51.228;4.528;2023-07-30T08:07:26;19.83;;;4.68;;
42904;SDS011;28550;51.228;4.528;2023-07-30T08:09:52;16.55;;;4.30;;
42904;SDS011;28550;51.228;4.528;2023-07-30T08:12:19;13.13;;;3.83;;
42904;SDS011;28550;51.228;4.528;2023-07-30T08:17:24;15.52;;;4.57;;
42904;SDS011;28550;51.228;4.528;2023-07-30T08:19:50;12.45;;;4.13;;
42904;SDS011;28550;51.228;4.528;2023-07-30T08:53:20;13.05;;;3.30;;
42904;SDS011;28550;51.228;4.528;2023-07-30T08:55:46;15.02;;;4.80;;
42904;SDS011;28550;51.228;4.528;2023-07-30T08:58:12;11.15;;;3.38;;
42904;SDS011;28550;51.228;4.528;2023-07-30T09:00:40;13.25;;;3.20;;
42904;SDS011;28550;51.228;4.528;2023-07-30T09:08:58;11.65;;;2.58;;
42904;SDS011;28550;51.228;4.528;2023-07-30T09:13:53;11.45;;;2.60;;
42904;SDS011;28550;51.228;4.528;2023-07-30T09:16:26;8.15;;;2.50;;
42904;SDS011;28550;51.228;4.528;2023-07-30T09:18:52;8.02;;;2.33;;
42904;SDS011;28550;51.228;4.528;2023-07-30T09:21:18;9.20;;;2.85;;
42904;SDS011;28550;51.228;4.528;2023-07-30T09:24:01;5.28;;;1.95;;
42904;SDS011;28550;51.228;4.528;2023-07-30T09:26:43;9.07;;;2.47;;
42904;SDS011;28550;51.228;4.528;2023-07-30T09:29:12;7.45;;;2.42;;
42904;SDS011;28550;51.228;4.528;2023-07-30T09:31:52;8.35;;;1.90;;
42904;SDS011;28550;51.228;4.528;2023-07-30T09:34:20;5.75;;;2.47;;
42904;SDS011;28550;51.228;4.528;2023-07-30T09:36:52;6.60;;;2.22;;
42904;SDS011;28550;51.228;4.528;2023-07-30T09:39:21;9.63;;;2.75;;
42904;SDS011;28550;51.228;4.528;2023-07-30T09:41:49;8.23;;;2.78;;
42904;SDS011;28550;51.228;4.528;2023-07-30T09:44:24;5.03;;;1.83;;
42904;SDS011;28550;51.228;4.528;2023-07-30T09:46:51;4.53;;;1.45;;
42904;SDS011;28550;51.228;4.528;2023-07-30T09:49:17;7.72;;;1.85;;
42904;SDS011;28550;51.228;4.528;2023-07-30T09:51:44;5.38;;;1.80;;
42904;SDS011;28550;51.228;4.528;2023-07-30T09:54:14;3.28;;;1.58;;
42904;SDS011;28550;51.228;4.528;2023-07-30T09:56:42;4.13;;;1.55;;
42904;SDS011;28550;51.228;4.528;2023-07-30T09:59:08;7.30;;;1.63;;
42904;SDS011;28550;51.228;4.528;2023-07-30T10:01:52;5.75;;;2.33;;
42904;SDS011;28550;51.228;4.528;2023-07-30T10:04:21;5.60;;;2.35;;
42904;SDS011;28550;51.228;4.528;2023-07-30T10:09:15;6.00;;;1.77;;
42904;SDS011;28550;51.228;4.528;2023-07-30T10:11:52;7.65;;;1.65;;
42904;SDS011;28550;51.228;4.528;2023-07-30T10:14:22;4.18;;;1.90;;
42904;SDS011;28550;51.228;4.528;2023-07-30T10:16:59;9.68;;;2.42;;
42904;SDS011;28550;51.228;4.528;2023-07-30T10:19:28;6.82;;;1.77;;
42904;SDS011;28550;51.228;4.528;2023-07-30T10:24:57;8.02;;;2.10;;
42904;SDS011;28550;51.228;4.528;2023-07-30T10:27:38;7.20;;;2.08;;
42904;SDS011;28550;51.228;4.528;2023-07-30T10:30:13;5.07;;;2.00;;
42904;SDS011;28550;51.228;4.528;2023-07-30T10:32:41;3.92;;;2.17;;
42904;SDS011;28550;51.228;4.528;2023-07-30T10:38:34;6.82;;;2.58;;
42904;SDS011;28550;51.228;4.528;2023-07-30T10:49:35;7.93;;;3.17;;
42904;SDS011;28550;51.228;4.528;2023-07-30T10:52:04;6.75;;;2.70;;
42904;SDS011;28550;51.228;4.528;2023-07-30T11:04:53;5.03;;;2.45;;
42904;SDS011;28550;51.228;4.528;2023-07-30T11:07:29;9.20;;;3.13;;
42904;SDS011;28550;51.228;4.528;2023-07-30T11:10:02;8.82;;;3.10;;
42904;SDS011;28550;51.228;4.528;2023-07-30T11:12:50;9.75;;;3.03;;
42904;SDS011;28550;51.228;4.528;2023-07-30T11:15:25;5.43;;;2.33;;
42904;SDS011;28550;51.228;4.528;2023-07-30T11:18:00;5.35;;;1.83;;
42904;SDS011;28550;51.228;4.528;2023-07-30T11:20:39;4.07;;;1.50;;
42904;SDS011;28550;51.228;4.528;2023-07-30T11:23:26;5.32;;;2.10;;
42904;SDS011;28550;51.228;4.528;2023-07-30T11:29:01;5.30;;;1.60;;
42904;SDS011;28550;51.228;4.528;2023-07-30T11:34:15;4.95;;;1.52;;
42904;SDS011;28550;51.228;4.528;2023-07-30T11:39:47;7.03;;;2.17;;
42904;SDS011;28550;51.228;4.528;2023-07-30T11:48:47;8.32;;;1.80;;
42904;SDS011;28550;51.228;4.528;2023-07-30T11:54:03;5.03;;;1.60;;
42904;SDS011;28550;51.228;4.528;2023-07-30T11:56:31;5.45;;;1.80;;
42904;SDS011;28550;51.228;4.528;2023-07-30T11:59:27;4.20;;;1.48;;
42904;SDS011;28550;51.228;4.528;2023-07-30T12:04:43;3.17;;;1.10;;
42904;SDS011;28550;51.228;4.528;2023-07-30T12:07:10;3.05;;;1.25;;
42904;SDS011;28550;51.228;4.528;2023-07-30T12:09:55;7.78;;;1.60;;
42904;SDS011;28550;51.228;4.528;2023-07-30T12:13:03;4.60;;;1.60;;
42904;SDS011;28550;51.228;4.528;2023-07-30T12:15:37;7.03;;;2.10;;
42904;SDS011;28550;51.228;4.528;2023-07-30T12:18:11;6.00;;;1.80;;
42904;SDS011;28550;51.228;4.528;2023-07-30T12:21:05;5.95;;;1.98;;
42904;SDS011;28550;51.228;4.528;2023-07-30T12:23:33;5.15;;;1.70;;
42904;SDS011;28550;51.228;4.528;2023-07-30T12:25:59;4.88;;;1.77;;
42904;SDS011;28550;51.228;4.528;2023-07-30T12:30:57;3.80;;;2.05;;
42904;SDS011;28550;51.228;4.528;2023-07-30T12:33:29;5.55;;;1.65;;
42904;SDS011;28550;51.228;4.528;2023-07-30T12:44:41;9.50;;;2.40;;
42904;SDS011;28550;51.228;4.528;2023-07-30T12:47:07;4.15;;;2.05;;
42904;SDS011;28550;51.228;4.528;2023-07-30T12:49:35;6.43;;;2.03;;
42904;SDS011;28550;51.228;4.528;2023-07-30T12:52:01;6.00;;;1.67;;
42904;SDS011;28550;51.228;4.528;2023-07-30T12:54:28;5.15;;;1.52;;
42904;SDS011;28550;51.228;4.528;2023-07-30T12:56:58;5.18;;;2.30;;
42904;SDS011;28550;51.228;4.528;2023-07-30T12:59:30;9.40;;;2.05;;
42904;SDS011;28550;51.228;4.528;2023-07-30T13:02:01;3.58;;;1.58;;
42904;SDS011;28550;51.228;4.528;2023-07-30T13:04:28;6.25;;;2.10;;
42904;SDS011;28550;51.228;4.528;2023-07-30T13:06:54;5.97;;;1.40;;
42904;SDS011;28550;51.228;4.528;2023-07-30T13:09:22;4.10;;;1.75;;
42904;SDS011;28550;51.228;4.528;2023-07-30T13:11:48;6.63;;;1.88;;
42904;SDS011;28550;51.228;4.528;2023-07-30T13:14:14;5.70;;;1.63;;
42904;SDS011;28550;51.228;4.528;2023-07-30T13:16:43;5.22;;;1.75;;
42904;SDS011;28550;51.228;4.528;2023-07-30T13:19:13;7.00;;;1.70;;
42904;SDS011;28550;51.228;4.528;2023-07-30T13:21:41;6.13;;;1.80;;
42904;SDS011;28550;51.228;4.528;2023-07-30T13:24:11;6.88;;;1.65;;
42904;SDS011;28550;51.228;4.528;2023-07-30T13:26:40;3.58;;;1.40;;
42904;SDS011;28550;51.228;4.528;2023-07-30T13:29:31;6.35;;;2.03;;
42904;SDS011;28550;51.228;4.528;2023-07-30T13:32:06;6.50;;;1.65;;
42904;SDS011;28550;51.228;4.528;2023-07-30T13:34:35;4.47;;;1.75;;
42904;SDS011;28550;51.228;4.528;2023-07-30T13:37:01;6.13;;;2.20;;
42904;SDS011;28550;51.228;4.528;2023-07-30T13:39:30;8.05;;;1.80;;
42904;SDS011;28550;51.228;4.528;2023-07-30T13:41:56;5.18;;;1.85;;
42904;SDS011;28550;51.228;4.528;2023-07-30T13:44:21;5.85;;;1.50;;
42904;SDS011;28550;51.228;4.528;2023-07-30T13:46:54;4.63;;;1.50;;
42904;SDS011;28550;51.228;4.528;2023-07-30T13:49:20;6.05;;;1.75;;
42904;SDS011;28550;51.228;4.528;2023-07-30T13:51:46;6.00;;;1.98;;
42904;SDS011;28550;51.228;4.528;2023-07-30T13:54:11;4.35;;;2.15;;
42904;SDS011;28550;51.228;4.528;2023-07-30T13:59:14;9.10;;;3.03;;
42904;SDS011;28550;51.228;4.528;2023-07-30T14:01:43;6.40;;;2.53;;
42904;SDS011;28550;51.228;4.528;2023-07-30T14:04:11;6.50;;;1.73;;
42904;SDS011;28550;51.228;4.528;2023-07-30T14:06:37;10.43;;;2.58;;
42904;SDS011;28550;51.228;4.528;2023-07-30T14:09:03;9.18;;;2.28;;
42904;SDS011;28550;51.228;4.528;2023-07-30T14:11:30;5.93;;;2.42;;
42904;SDS011;28550;51.228;4.528;2023-07-30T14:14:04;8.82;;;1.98;;
42904;SDS011;28550;51.228;4.528;2023-07-30T14:16:30;6.72;;;2.50;;
42904;SDS011;28550;51.228;4.528;2023-07-30T14:18:57;4.07;;;1.65;;
42904;SDS011;28550;51.228;4.528;2023-07-30T14:21:23;4.45;;;1.88;;
42904;SDS011;28550;51.228;4.528;2023-07-30T14:23:49;4.25;;;1.90;;
42904;SDS011;28550;51.228;4.528;2023-07-30T14:26:16;5.97;;;2.20;;
42904;SDS011;28550;51.228;4.528;2023-07-30T14:28:42;6.60;;;2.20;;
42904;SDS011;28550;51.228;4.528;2023-07-30T14:31:08;6.28;;;2.25;;
42904;SDS011;28550;51.228;4.528;2023-07-30T14:33:43;6.18;;;2.38;;
42904;SDS011;28550;51.228;4.528;2023-07-30T14:36:09;6.10;;;2.33;;
42904;SDS011;28550;51.228;4.528;2023-07-30T14:42:08;4.80;;;2.60;;
42904;SDS011;28550;51.228;4.528;2023-07-30T14:45:08;5.30;;;2.38;;
42904;SDS011;28550;51.228;4.528;2023-07-30T14:47:34;7.13;;;2.58;;
42904;SDS011;28550;51.228;4.528;2023-07-30T14:52:57;7.97;;;3.03;;
42904;SDS011;28550;51.228;4.528;2023-07-30T14:55:25;8.98;;;2.80;;
42904;SDS011;28550;51.228;4.528;2023-07-30T15:07:02;9.85;;;3.40;;
42904;SDS011;28550;51.228;4.528;2023-07-30T15:09:28;7.60;;;2.95;;
42904;SDS011;28550;51.228;4.528;2023-07-30T15:12:00;9.30;;;2.95;;
42904;SDS011;28550;51.228;4.528;2023-07-30T15:14:28;8.10;;;2.72;;
42904;SDS011;28550;51.228;4.528;2023-07-30T15:16:54;10.80;;;3.45;;
42904;SDS011;28550;51.228;4.528;2023-07-30T15:19:21;9.48;;;3.03;;
42904;SDS011;28550;51.228;4.528;2023-07-30T15:21:47;11.93;;;3.55;;
42904;SDS011;28550;51.228;4.528;2023-07-30T15:24:15;20.77;;;4.20;;
42904;SDS011;28550;51.228;4.528;2023-07-30T15:26:42;7.20;;;3.20;;
42904;SDS011;28550;51.228;4.528;2023-07-30T15:29:12;10.35;;;3.60;;
42904;SDS011;28550;51.228;4.528;2023-07-30T15:37:29;10.05;;;3.35;;
42904;SDS011;28550;51.228;4.528;2023-07-30T15:39:58;9.15;;;4.22;;
42904;SDS011;28550;51.228;4.528;2023-07-30T15:45:24;16.65;;;3.88;;
42904;SDS011;28550;51.228;4.528;2023-07-30T15:47:55;10.80;;;4.60;;
42904;SDS011;28550;51.228;4.528;2023-07-30T15:51:34;11.07;;;4.35;;
42904;SDS011;28550;51.228;4.528;2023-07-30T15:53:53;13.48;;;5.07;;
42904;SDS011;28550;51.228;4.528;2023-07-30T15:56:22;12.00;;;4.43;;
42904;SDS011;28550;51.228;4.528;2023-07-30T15:58:51;14.43;;;4.15;;
42904;SDS011;28550;51.228;4.528;2023-07-30T16:01:17;11.85;;;3.60;;
42904;SDS011;28550;51.228;4.528;2023-07-30T16:03:42;13.65;;;4.60;;
42904;SDS011;28550;51.228;4.528;2023-07-30T16:06:11;12.68;;;4.25;;
42904;SDS011;28550;51.228;4.528;2023-07-30T16:08:38;12.00;;;4.00;;
42904;SDS011;28550;51.228;4.528;2023-07-30T16:14:18;11.27;;;4.00;;
42904;SDS011;28550;51.228;4.528;2023-07-30T16:16:52;10.57;;;4.43;;
42904;SDS011;28550;51.228;4.528;2023-07-30T16:22:43;10.57;;;4.10;;
42904;SDS011;28550;51.228;4.528;2023-07-30T16:25:18;8.23;;;3.45;;
42904;SDS011;28550;51.228;4.528;2023-07-30T16:27:44;9.75;;;4.65;;
42904;SDS011;28550;51.228;4.528;2023-07-30T16:30:09;11.40;;;4.40;;
42904;SDS011;28550;51.228;4.528;2023-07-30T16:32:35;10.90;;;3.75;;
42904;SDS011;28550;51.228;4.528;2023-07-30T16:35:10;11.18;;;3.70;;
42904;SDS011;28550;51.228;4.528;2023-07-30T16:37:40;11.13;;;4.38;;
42904;SDS011;28550;51.228;4.528;2023-07-30T18:01:20;7.90;;;4.82;;
42904;SDS011;28550;51.228;4.528;2023-07-30T18:11:36;9.52;;;3.95;;
42904;SDS011;28550;51.228;4.528;2023-07-30T22:31:08;32.97;;;11.15;;
42904;SDS011;28550;51.228;4.528;2023-07-30T22:33:41;31.08;;;8.80;;
42904;SDS011;28550;51.228;4.528;2023-07-30T22:36:10;29.83;;;10.73;;
42904;SDS011;28550;51.228;4.528;2023-07-30T22:42:03;34.22;;;9.70;;
42904;SDS011;28550;51.228;4.528;2023-07-30T22:44:52;27.95;;;8.68;;
42904;SDS011;28550;51.228;4.528;2023-07-30T22:47:35;24.75;;;9.82;;
42904;SDS011;28550;51.228;4.528;2023-07-30T22:50:01;34.20;;;9.75;;
42904;SDS011;28550;51.228;4.528;2023-07-30T22:52:27;32.63;;;9.32;;
42904;SDS011;28550;51.228;4.528;2023-07-30T22:54:52;31.58;;;10.82;;
42904;SDS011;28550;51.228;4.528;2023-07-30T22:57:27;22.27;;;8.63;;
42904;SDS011;28550;51.228;4.528;2023-07-30T22:59:52;27.63;;;10.05;;
42904;SDS011;28550;51.228;4.528;2023-07-30T23:02:26;27.50;;;10.15;;
42904;SDS011;28550;51.228;4.528;2023-07-30T23:05:36;24.52;;;9.23;;
42904;SDS011;28550;51.228;4.528;2023-07-30T23:11:09;26.27;;;8.70;;
42904;SDS011;28550;51.228;4.528;2023-07-30T23:13:35;27.70;;;9.23;;
42904;SDS011;28550;51.228;4.528;2023-07-30T23:16:04;20.83;;;8.52;;
42904;SDS011;28550;51.228;4.528;2023-07-30T23:18:42;21.10;;;9.10;;
42904;SDS011;28550;51.228;4.528;2023-07-30T23:21:17;26.10;;;8.48;;
42904;SDS011;28550;51.228;4.528;2023-07-30T23:23:43;25.20;;;9.02;;
42904;SDS011;28550;51.228;4.528;2023-07-30T23:26:10;24.70;;;8.07;;
42904;SDS011;28550;51.228;4.528;2023-07-30T23:28:41;27.25;;;8.15;;
42904;SDS011;28550;51.228;4.528;2023-07-30T23:31:08;22.83;;;8.13;;
42904;SDS011;28550;51.228;4.528;2023-07-30T23:33:37;22.08;;;8.60;;
42904;SDS011;28550;51.228;4.528;2023-07-30T23:36:08;23.42;;;7.93;;
42904;SDS011;28550;51.228;4.528;2023-07-30T23:38:34;23.48;;;7.40;;
42904;SDS011;28550;51.228;4.528;2023-07-30T23:41:02;24.48;;;7.45;;
42904;SDS011;28550;51.228;4.528;2023-07-30T23:43:34;25.15;;;7.25;;
42904;SDS011;28550;51.228;4.528;2023-07-30T23:48:54;22.92;;;7.82;;
42904;SDS011;28550;51.228;4.528;2023-07-30T23:51:42;21.50;;;7.20;;
42904;SDS011;28550;51.228;4.528;2023-07-30T23:54:08;19.92;;;6.50;;
42904;SDS011;28550;51.228;4.528;2023-07-30T23:56:33;19.95;;;7.22;;
42904;SDS011;28550;51.228;4.528;2023-07-30T23:58:59;23.95;;;7.60;;
